U08 weather

Perkins Field
Overton, Nevada, United States

Public forecast

Using degrees Fahrenheit for public forecast. Weather courtesy of forecast.io.

METAR (pilot weather report)

Closest report is Nellis Air Force Base, 34.8 nm (64.5 km) SW. Retrieved 2019/03/19 20:56 UTC (20 minutes ago):

KLSV 192056Z 04004G13KT 10SM SCT180 BKN220 24/M05 A3001 RMK AO2A SLP142 WND DATA ESTMD T02431047 57021 $

TAF (pilot weather forecast)

Forecast is more than 6 hours old.

Closest forecast is Nellis Air Force Base, 34.8 nm (64.5 km) SW. Retrieved 2019/03/19 15:12 UTC (6 hours ago):

TAF TAF KLSV 191500Z 1915/2021 VRB06KT 9999 FEW220 QNH3000INS BECMG 1918/1919 12013KT 9999 SCT120 SCT180 QNH2990INS BECMG 2001/2002 VRB06KT 9999 SCT100 BKN180 QNH2987INS BECMG 2019/2020 18013KT 9999 BKN080 OVC140 QNH2995INS TX24/1923Z TN07/2015Z